Time;durP1;ratioP1;P1;durP2;ratioP2;P2;SDS_P1;SDS_P2;PMS_P1;PMS_P2;Temp;Humidity;BMP_temperature;BMP_pressure;BME280_temperature;BME280_humidity;BME280_pressure;Samples;Min_cycle;Max_cycle;Signal;HPM_P1;HPM_P2
2021/11/03 00:00:41;;;;;;;3.17;0.80;;;;;;;14.19;50.62;97132.88;5132681;27;20035;-52
2021/11/03 00:03:08;;;;;;;2.45;0.70;;;;;;;14.23;50.46;97124.44;5133112;28;20072;-52
2021/11/03 00:05:34;;;;;;;2.50;0.80;;;;;;;14.28;50.10;97127.06;5132968;28;20067;-52
2021/11/03 00:08:01;;;;;;;1.25;0.63;;;;;;;14.35;49.99;97122.34;5132210;28;20108;-52
2021/11/03 00:10:27;;;;;;;2.42;0.70;;;;;;;14.37;49.76;97112.31;5114231;28;20027;-53
2021/11/03 00:12:52;;;;;;;2.13;1.33;;;;;;;14.30;49.73;97106.50;5132690;28;20033;-52
2021/11/03 00:15:18;;;;;;;1.33;0.98;;;;;;;14.28;49.89;97103.31;5132905;28;20042;-52
2021/11/03 00:17:44;;;;;;;2.03;0.60;;;;;;;14.28;49.89;97103.31;5132591;28;20417;-52
2021/11/03 00:20:12;;;;;;;8.10;1.10;;;;;;;14.26;50.06;97092.25;5132570;28;20027;-52
2021/11/03 00:22:38;;;;;;;2.00;0.90;;;;;;;14.28;49.88;97090.13;5132571;28;20027;-52
2021/11/03 00:25:05;;;;;;;3.13;0.75;;;;;;;14.27;50.05;97086.72;5132539;28;20023;-52
2021/11/03 00:27:31;;;;;;;2.85;0.73;;;;;;;14.27;50.19;97083.28;5132529;28;20027;-52
2021/11/03 00:29:56;;;;;;;1.35;0.80;;;;;;;14.30;50.09;97075.59;5132586;28;20366;-52
2021/11/03 00:32:22;;;;;;;2.45;0.82;;;;;;;14.36;50.43;97084.31;5132806;28;20452;-52
2021/11/03 00:34:48;;;;;;;2.50;0.82;;;;;;;14.39;50.12;97078.53;5132469;28;20068;-52
2021/11/03 00:37:14;;;;;;;1.75;0.60;;;;;;;14.40;49.98;97077.47;5132435;28;20088;-52
2021/11/03 00:39:41;;;;;;;4.07;0.82;;;;;;;14.41;50.09;97071.16;5135390;27;20019;-53
2021/11/03 00:42:07;;;;;;;1.63;0.60;;;;;;;14.43;50.07;97076.13;5136397;27;20019;-52
2021/11/03 00:44:33;;;;;;;1.25;0.70;;;;;;;14.46;50.26;97070.34;5136454;27;20031;-52
2021/11/03 00:46:59;;;;;;;2.75;0.68;;;;;;;14.49;50.18;97067.97;5136299;27;20491;-52
2021/11/03 00:49:24;;;;;;;1.77;0.60;;;;;;;14.60;50.27;97060.06;5136299;27;20023;-52
2021/11/03 00:51:50;;;;;;;1.25;0.73;;;;;;;14.70;50.22;97068.75;5117761;27;20454;-52
2021/11/03 00:54:16;;;;;;;4.63;0.80;;;;;;;14.79;49.44;97063.75;5136188;27;20388;-52
2021/11/03 00:56:42;;;;;;;1.92;0.57;;;;;;;14.77;49.49;97066.63;5117663;27;20080;-52
2021/11/03 00:59:08;;;;;;;2.13;0.70;;;;;;;14.72;49.86;97060.56;5117589;27;20023;-51
2021/11/03 01:01:34;;;;;;;2.33;0.70;;;;;;;14.73;49.95;97060.31;5136004;27;20027;-53
2021/11/03 01:03:59;;;;;;;3.38;0.82;;;;;;;14.74;50.04;97056.59;5136022;27;20102;-52
2021/11/03 01:06:25;;;;;;;1.05;0.50;;;;;;;14.81;49.86;97052.88;5135705;27;20369;-52
2021/11/03 01:08:51;;;;;;;1.88;0.73;;;;;;;14.94;50.03;97054.97;5135966;27;20076;-52
2021/11/03 01:11:17;;;;;;;3.85;0.70;;;;;;;15.23;49.60;97046.41;5135818;27;20031;-52
2021/11/03 01:13:43;;;;;;;3.50;0.95;;;;;;;15.55;49.23;97048.66;5135849;27;20038;-52
2021/11/03 01:16:09;;;;;;;5.88;0.90;;;;;;;15.80;48.62;97045.13;5135752;27;20110;-52
2021/11/03 01:18:35;;;;;;;2.53;0.70;;;;;;;15.85;48.55;97045.06;5135696;27;20030;-52
2021/11/03 01:21:02;;;;;;;3.28;1.00;;;;;;;15.97;48.68;97042.06;5135591;27;20019;-53
2021/11/03 01:23:30;;;;;;;1.52;0.60;;;;;;;16.08;48.61;97035.66;5117181;27;20031;-52
2021/11/03 01:25:57;;;;;;;1.15;0.68;;;;;;;16.04;48.36;97034.63;5135541;27;20015;-52
2021/11/03 01:28:23;;;;;;;3.13;1.42;;;;;;;15.88;48.60;97033.94;5135544;27;20051;-52
2021/11/03 01:30:49;;;;;;;3.55;0.55;;;;;;;15.71;48.47;97030.84;5135469;27;20080;-52
2021/11/03 01:33:18;;;;;;;2.22;1.00;;;;;;;15.52;48.92;97034.13;5135447;27;20019;-52
2021/11/03 01:35:44;;;;;;;8.80;0.90;;;;;;;15.46;49.54;97024.66;5135353;27;20496;-53
2021/11/03 01:38:11;;;;;;;2.60;0.80;;;;;;;15.49;49.42;97031.22;5135366;27;20023;-52
2021/11/03 01:40:42;;;;;;;2.45;0.75;;;;;;;15.58;49.20;97026.97;5135204;27;20565;-53
2021/11/03 01:43:09;;;;;;;3.78;0.80;;;;;;;15.58;49.04;97029.59;5135266;27;20408;-52
2021/11/03 01:45:36;;;;;;;4.55;0.98;;;;;;;15.41;49.41;97026.53;5116613;27;20408;-52
2021/11/03 01:48:05;;;;;;;4.65;1.30;;;;;;;15.30;49.75;97025.78;5135184;27;20562;-51
2021/11/03 01:50:42;;;;;;;3.28;0.82;;;;;;;15.22;49.63;97021.84;5133831;27;20023;-52
2021/11/03 01:53:14;;;;;;;2.20;1.00;;;;;;;15.19;50.31;97017.09;5135176;27;20055;-52
2021/11/03 01:55:54;;;;;;;2.15;0.90;;;;;;;15.24;50.39;97014.44;5135083;27;20051;-52
2021/11/03 01:58:25;;;;;;;2.33;0.75;;;;;;;15.30;50.34;97007.28;5135088;27;20062;-52
2021/11/03 02:00:54;;;;;;;3.13;0.90;;;;;;;15.31;50.33;97009.66;5134894;27;20023;-52
2021/11/03 02:03:25;;;;;;;5.43;1.05;;;;;;;15.35;50.47;97008.06;5134899;27;20075;-53
2021/11/03 02:05:57;;;;;;;5.97;1.10;;;;;;;15.45;50.43;97011.69;5134844;27;20026;-52
2021/11/03 02:08:23;;;;;;;5.38;1.73;;;;;;;15.57;50.17;97010.31;5134728;27;20039;-52
2021/11/03 02:10:50;;;;;;;5.43;1.17;;;;;;;15.76;50.06;97010.47;5134667;27;20042;-52
2021/11/03 02:13:16;;;;;;;95.65;86.53;;;;;;;15.92;49.75;97010.38;5134701;27;20015;-52
2021/11/03 02:15:43;;;;;;;17.67;11.55;;;;;;;16.02;50.99;97010.31;5134604;27;20019;-52
2021/11/03 02:18:16;;;;;;;8.90;2.05;;;;;;;16.03;53.38;97009.22;5116126;27;20058;-52
2021/11/03 02:20:44;;;;;;;4.30;1.33;;;;;;;15.87;54.63;97008.53;5134486;27;20034;-52
2021/11/03 02:23:36;;;;;;;1.55;1.23;;;;;;;15.65;56.82;97011.56;5134562;27;20063;-52
2021/11/03 02:26:39;;;;;;;7.68;1.23;;;;;;;15.36;59.08;97020.19;5134010;27;20050;-52
2021/11/03 02:29:11;;;;;;;3.83;1.48;;;;;;;15.14;59.66;97012.63;5131122;27;20035;-53
2021/11/03 02:31:42;;;;;;;7.53;1.05;;;;;;;15.16;59.97;97004.44;5134291;27;20514;-52
2021/11/03 02:34:12;;;;;;;5.13;0.63;;;;;;;15.23;59.67;97015.53;5134312;27;20027;-52
2021/11/03 02:37:25;;;;;;;5.22;0.95;;;;;;;15.00;60.04;97021.41;5134158;27;20035;-52
2021/11/03 02:39:57;;;;;;;6.97;1.08;;;;;;;14.71;60.76;97036.03;5126572;27;20077;-51
2021/11/03 02:42:25;;;;;;;7.25;1.02;;;;;;;14.47;61.54;97030.50;5134157;27;20031;-52
2021/11/03 02:44:56;;;;;;;6.57;0.82;;;;;;;14.23;62.53;97042.66;5134073;27;20053;-51
2021/11/03 02:47:21;;;;;;;2.35;1.27;;;;;;;13.87;62.14;97053.16;5134040;27;20031;-52
2021/11/03 02:49:47;;;;;;;5.40;0.80;;;;;;;13.42;64.20;97059.91;5133958;27;20023;-51
2021/11/03 02:52:23;;;;;;;1.45;0.45;;;;;;;12.95;65.34;97057.03;5133901;27;20073;-51
2021/11/03 02:54:49;;;;;;;1.98;0.40;;;;;;;12.51;67.79;97067.81;5133855;27;20507;-51
2021/11/03 02:57:16;;;;;;;3.20;0.70;;;;;;;12.06;68.49;97069.03;5133787;27;20023;-52
2021/11/03 02:59:42;;;;;;;1.10;0.40;;;;;;;11.86;70.96;97067.00;5133677;27;20019;-52
2021/11/03 03:02:09;;;;;;;4.20;0.30;;;;;;;11.63;70.77;97070.72;5133315;27;20427;-52
2021/11/03 03:04:37;;;;;;;5.35;0.47;;;;;;;11.38;71.84;97071.22;5115119;27;20023;-52
2021/11/03 03:07:04;;;;;;;3.53;0.50;;;;;;;11.28;72.59;97069.25;5133374;27;20414;-52
2021/11/03 03:09:30;;;;;;;0.70;0.20;;;;;;;11.23;72.00;97066.56;5115056;27;20023;-52
2021/11/03 03:12:01;;;;;;;4.85;1.02;;;;;;;11.02;73.07;97069.97;5133535;27;20102;-52
2021/11/03 03:14:29;;;;;;;2.33;0.60;;;;;;;10.93;74.04;97064.34;5115061;27;20235;-52
2021/11/03 03:16:55;;;;;;;3.03;0.77;;;;;;;10.95;74.19;97065.69;5133394;27;20047;-52
2021/11/03 03:19:21;;;;;;;3.20;0.80;;;;;;;11.00;74.47;97065.75;5133278;27;20481;-51
2021/11/03 03:21:47;;;;;;;3.22;0.55;;;;;;;10.95;74.51;97075.41;5114837;27;20019;-52
2021/11/03 03:24:15;;;;;;;1.35;0.30;;;;;;;10.82;74.87;97076.53;5133341;27;20030;-51
2021/11/03 03:26:42;;;;;;;10.23;1.27;;;;;;;10.68;75.06;97080.53;5133303;27;20015;-53
2021/11/03 03:29:08;;;;;;;1.65;0.40;;;;;;;10.50;74.96;97079.75;5133206;27;20071;-52
2021/11/03 03:31:35;;;;;;;1.85;0.55;;;;;;;10.39;75.64;97078.00;5133183;27;20015;-52
2021/11/03 03:34:04;;;;;;;6.13;1.52;;;;;;;10.42;76.44;97074.09;5133191;27;20031;-52
2021/11/03 03:36:30;;;;;;;3.63;0.90;;;;;;;10.61;77.24;97058.94;5114639;27;20890;-52
2021/11/03 03:38:56;;;;;;;7.97;1.20;;;;;;;10.86;77.51;97051.38;5133124;27;20026;-52
2021/11/03 03:41:25;;;;;;;1.50;0.40;;;;;;;11.12;77.66;97067.47;5114468;27;20030;-52
2021/11/03 03:43:50;;;;;;;0.65;0.30;;;;;;;11.09;77.34;97068.78;5133051;27;20045;-52
2021/11/03 03:46:17;;;;;;;1.90;0.40;;;;;;;11.07;77.28;97075.31;5133021;27;20016;-52
2021/11/03 03:48:43;;;;;;;0.45;0.20;;;;;;;11.05;76.48;97072.91;5133282;27;20027;-52
2021/11/03 03:51:11;;;;;;;0.20;0.17;;;;;;;10.77;75.42;97084.34;5132917;27;20399;-52
2021/11/03 03:53:37;;;;;;;0.43;0.20;;;;;;;10.70;76.74;97084.50;5132895;27;20397;-52
2021/11/03 03:56:03;;;;;;;0.52;0.20;;;;;;;10.62;76.27;97084.13;5132850;27;20122;-53
2021/11/03 03:58:29;;;;;;;2.47;0.38;;;;;;;10.55;77.18;97094.78;5132778;27;20552;-52
2021/11/03 04:00:55;;;;;;;0.95;0.35;;;;;;;10.52;77.10;97111.78;5114313;27;20025;-52
2021/11/03 04:03:20;;;;;;;7.22;1.00;;;;;;;10.51;77.50;97110.19;5132817;28;20022;-52
2021/11/03 04:05:47;;;;;;;1.00;0.30;;;;;;;10.54;77.36;97116.78;5132770;28;20019;-51
2021/11/03 04:08:14;;;;;;;1.73;0.30;;;;;;;10.57;77.66;97119.72;5132621;28;20047;-51
2021/11/03 04:10:43;;;;;;;3.80;0.45;;;;;;;10.55;77.25;97108.69;5132724;28;20398;-52
2021/11/03 04:13:10;;;;;;;3.30;0.50;;;;;;;10.54;77.55;97104.47;5132969;27;20079;-51
2021/11/03 04:15:36;;;;;;;1.45;0.30;;;;;;;10.52;77.45;97118.84;5137003;27;20438;-52
2021/11/03 04:18:02;;;;;;;0.80;0.57;;;;;;;10.46;76.79;97115.34;5136997;27;20023;-53
2021/11/03 04:20:28;;;;;;;2.83;0.40;;;;;;;10.41;77.59;97117.91;5136869;27;20499;-52
2021/11/03 04:22:54;;;;;;;3.00;0.55;;;;;;;10.34;77.23;97125.13;5136940;27;20067;-53
2021/11/03 04:25:20;;;;;;;0.70;0.30;;;;;;;10.39;77.49;97130.47;5136832;27;20514;-52
2021/11/03 04:27:46;;;;;;;2.10;0.40;;;;;;;10.36;77.95;97130.91;5136788;27;20494;-52
2021/11/03 04:30:16;;;;;;;7.15;0.77;;;;;;;10.26;77.40;97130.72;5118276;27;20050;-52
2021/11/03 04:32:42;;;;;;;10.13;0.77;;;;;;;10.23;77.81;97137.25;5136694;27;20023;-53
2021/11/03 04:35:09;;;;;;;2.72;0.40;;;;;;;10.20;78.15;97135.06;5136604;27;20485;-52
2021/11/03 04:37:35;;;;;;;2.15;0.52;;;;;;;10.12;77.99;97143.31;5118101;27;20110;-52
2021/11/03 04:40:01;;;;;;;2.03;0.60;;;;;;;10.00;78.23;97135.53;5136483;27;20480;-51
2021/11/03 04:42:27;;;;;;;4.55;1.02;;;;;;;9.86;78.31;97152.53;5136423;27;20025;-53
2021/11/03 04:44:52;;;;;;;2.63;0.60;;;;;;;9.65;78.70;97151.38;5136428;27;20488;-52
2021/11/03 04:47:18;;;;;;;3.15;0.80;;;;;;;9.51;78.80;97149.00;5136348;27;20541;-52
2021/11/03 04:49:44;;;;;;;1.92;0.98;;;;;;;9.43;79.53;97145.94;5136313;27;20037;-52
2021/11/03 04:52:09;;;;;;;7.15;0.90;;;;;;;9.38;80.00;97147.44;5136528;27;20379;-52
2021/11/03 04:54:35;;;;;;;2.08;1.15;;;;;;;9.35;79.90;97149.72;5117772;27;20027;-52
2021/11/03 04:57:01;;;;;;;6.30;1.00;;;;;;;9.30;79.96;97152.25;5117666;27;20023;-51
2021/11/03 04:59:27;;;;;;;5.38;1.38;;;;;;;9.25;80.50;97159.97;5117554;27;20527;-52
2021/11/03 05:01:53;;;;;;;1.67;0.52;;;;;;;9.31;80.82;97154.59;5136127;27;20015;-51
2021/11/03 05:04:18;;;;;;;3.90;1.35;;;;;;;9.36;81.33;97153.94;5136030;27;20026;-51
2021/11/03 05:06:48;;;;;;;0.85;0.70;;;;;;;9.32;81.11;97142.34;5135756;27;20047;-51
2021/11/03 05:09:17;;;;;;;5.65;1.27;;;;;;;9.26;81.22;97154.50;5136009;27;20027;-52
2021/11/03 05:11:43;;;;;;;2.85;1.52;;;;;;;9.26;81.32;97148.50;5135918;27;20019;-52
2021/11/03 05:14:10;;;;;;;2.95;0.80;;;;;;;9.19;81.28;97153.81;5135912;27;20423;-51
2021/11/03 05:16:36;;;;;;;3.28;0.93;;;;;;;9.08;81.31;97146.78;5135671;27;20106;-52
2021/11/03 05:19:03;;;;;;;2.17;0.98;;;;;;;8.98;81.11;97148.16;5135755;27;20026;-52
2021/11/03 05:21:30;;;;;;;1.88;0.40;;;;;;;8.90;80.77;97156.34;5135622;27;20019;-53
2021/11/03 05:23:56;;;;;;;8.77;0.77;;;;;;;8.84;80.93;97141.56;5117021;27;20027;-52
2021/11/03 05:26:24;;;;;;;3.10;1.25;;;;;;;8.81;81.23;97142.00;5116987;27;20148;-53
2021/11/03 05:28:53;;;;;;;9.40;3.28;;;;;;;8.83;81.12;97139.94;5135564;27;20392;-53
2021/11/03 05:31:19;;;;;;;2.22;0.85;;;;;;;8.84;80.96;97146.78;5117064;27;20042;-53
2021/11/03 05:33:45;;;;;;;1.95;0.80;;;;;;;8.82;81.53;97148.84;5117100;27;20027;-52
2021/11/03 05:36:21;;;;;;;2.90;1.83;;;;;;;8.78;81.42;97153.72;5135737;27;20031;-53
2021/11/03 05:38:47;;;;;;;12.73;2.83;;;;;;;8.77;82.04;97154.75;5135703;27;20022;-53
2021/11/03 05:41:14;;;;;;;1.13;0.85;;;;;;;8.78;81.84;97158.16;5135247;27;20050;-53
2021/11/03 05:43:40;;;;;;;4.30;1.30;;;;;;;8.69;81.17;97147.25;5116887;27;20023;-53
2021/11/03 05:46:07;;;;;;;3.03;1.33;;;;;;;8.66;nan;97144.28;5135282;27;20065;-52
2021/11/03 05:48:34;;;;;;;3.67;1.45;;;;;;;8.62;80.93;97138.69;5116771;27;20015;-53
2021/11/03 05:51:00;;;;;;;3.28;1.40;;;;;;;8.60;81.12;97128.44;5135153;27;20488;-53
2021/11/03 05:53:26;;;;;;;4.88;0.98;;;;;;;8.62;80.81;97122.22;5135394;27;20049;-52
2021/11/03 05:55:52;;;;;;;2.42;1.63;;;;;;;8.60;80.84;97123.22;5135267;27;20027;-53
2021/11/03 05:58:17;;;;;;;2.55;0.90;;;;;;;8.68;80.65;97116.06;5135043;27;20038;-52
2021/11/03 06:00:43;;;;;;;3.53;1.65;;;;;;;8.84;81.65;97115.41;5134832;27;20091;-52
2021/11/03 06:03:09;;;;;;;13.38;5.53;;;;;;;9.00;81.04;97114.69;5134772;27;20023;-52
2021/11/03 06:05:34;;;;;;;7.03;3.30;;;;;;;9.13;80.92;97105.81;5116353;27;20098;-52
2021/11/03 06:08:06;;;;;;;9.48;3.88;;;;;;;9.10;80.12;97116.75;5134615;27;20071;-52
2021/11/03 06:10:37;;;;;;;5.50;2.78;;;;;;;9.09;80.16;97120.38;5134778;27;20024;-51
2021/11/03 06:13:03;;;;;;;10.13;3.25;;;;;;;9.10;79.79;97110.72;5135083;27;20027;-51
2021/11/03 06:15:32;;;;;;;7.10;2.35;;;;;;;9.13;80.36;97110.25;5134927;27;20045;-51
2021/11/03 06:17:58;;;;;;;2.80;1.50;;;;;;;9.08;79.76;97113.56;5134587;27;20024;-51
2021/11/03 06:20:24;;;;;;;7.70;3.08;;;;;;;9.02;80.20;97109.25;5134419;27;20068;-52
2021/11/03 06:22:50;;;;;;;10.55;5.80;;;;;;;9.08;80.91;97120.63;5134562;27;20385;-51
2021/11/03 06:25:17;;;;;;;12.35;2.83;;;;;;;9.18;80.57;97116.38;5115951;27;20027;-52
2021/11/03 06:27:44;;;;;;;8.88;2.85;;;;;;;9.29;81.06;97127.06;5134401;27;20027;-52
2021/11/03 06:30:15;;;;;;;4.10;1.73;;;;;;;9.30;80.70;97123.44;5134325;27;20098;-51
2021/11/03 06:32:41;;;;;;;12.82;3.33;;;;;;;9.28;80.46;97123.66;5134634;27;20027;-51
2021/11/03 06:35:07;;;;;;;7.55;2.05;;;;;;;9.36;80.85;97117.28;5134253;27;20534;-51
2021/11/03 06:37:34;;;;;;;18.60;16.05;;;;;;;9.34;80.43;97108.88;5133509;27;20027;-52
2021/11/03 06:40:00;;;;;;;19.48;16.05;;;;;;;9.50;81.18;97116.00;5134096;27;20567;-51
2021/11/03 06:42:25;;;;;;;31.13;27.63;;;;;;;9.58;80.90;97117.47;5134143;27;20133;-53
2021/11/03 06:44:51;;;;;;;5.07;2.58;;;;;;;9.37;80.07;97119.66;5115710;27;20038;-51
2021/11/03 06:47:19;;;;;;;9.77;4.60;;;;;;;9.06;80.75;97122.69;5133917;27;20096;-52
2021/11/03 06:49:46;;;;;;;2.63;2.10;;;;;;;8.94;81.13;97131.31;5133894;27;20035;-52
2021/11/03 06:52:13;;;;;;;5.70;2.58;;;;;;;8.97;81.79;97140.53;5133948;27;20062;-52
2021/11/03 06:54:39;;;;;;;8.70;3.67;;;;;;;9.04;81.81;97141.22;5133923;27;20072;-52
2021/11/03 06:57:05;;;;;;;19.55;11.10;;;;;;;9.11;81.77;97138.47;5133805;27;20035;-54
2021/11/03 06:59:31;;;;;;;14.93;9.10;;;;;;;9.18;82.01;97132.09;5133727;27;20431;-53
2021/11/03 07:01:57;;;;;;;16.02;5.47;;;;;;;9.25;82.06;97134.59;5133718;27;20023;-53
2021/11/03 07:04:22;;;;;;;6.18;2.65;;;;;;;9.35;81.41;97147.09;5133624;27;20027;-52
2021/11/03 07:06:49;;;;;;;12.00;4.10;;;;;;;9.36;80.85;97144.25;5133387;27;20107;-51
2021/11/03 07:09:15;;;;;;;12.27;7.75;;;;;;;9.44;80.95;97143.09;5133478;27;20076;-53
2021/11/03 07:11:41;;;;;;;68.15;56.95;;;;;;;9.53;81.17;97159.25;5133416;27;20022;-53
2021/11/03 07:14:08;;;;;;;21.95;17.75;;;;;;;9.50;80.06;97152.66;5133472;27;20019;-53
2021/11/03 07:16:34;;;;;;;11.93;6.22;;;;;;;9.44;80.59;97161.44;5133440;27;20029;-53
2021/11/03 07:19:01;;;;;;;5.38;1.33;;;;;;;9.53;80.32;97164.47;5133458;27;20030;-53
2021/11/03 07:21:26;;;;;;;3.47;0.82;;;;;;;9.52;80.17;97174.16;5133305;27;20094;-53
2021/11/03 07:23:52;;;;;;;8.05;2.40;;;;;;;9.49;79.47;97182.47;5133440;27;20451;-53
2021/11/03 07:26:18;;;;;;;5.88;2.53;;;;;;;9.48;79.94;97180.91;5133570;27;20045;-53
2021/11/03 07:28:44;;;;;;;12.18;2.70;;;;;;;9.52;79.96;97174.16;5114793;27;20039;-53
2021/11/03 07:31:10;;;;;;;11.35;1.50;;;;;;;9.53;79.22;97175.75;5133210;27;20110;-54
2021/11/03 07:33:37;;;;;;;5.93;0.85;;;;;;;9.55;79.39;97188.63;5133231;27;20083;-53
2021/11/03 07:36:05;;;;;;;6.53;1.40;;;;;;;9.60;78.89;97186.91;5133081;27;20054;-53
2021/11/03 07:38:31;;;;;;;27.10;2.55;;;;;;;9.77;79.71;97191.41;5133082;27;20031;-52
2021/11/03 07:40:57;;;;;;;8.20;0.65;;;;;;;9.88;78.91;97192.41;5132966;27;20071;-54
2021/11/03 07:43:26;;;;;;;12.50;0.90;;;;;;;9.93;79.10;97190.69;5133079;27;20023;-54
2021/11/03 07:45:53;;;;;;;12.02;1.83;;;;;;;10.06;79.24;97192.25;5132986;27;20026;-53
2021/11/03 07:48:22;;;;;;;17.10;1.35;;;;;;;10.13;78.25;97189.50;5132917;27;20773;-52
2021/11/03 07:50:52;;;;;;;39.83;5.60;;;;;;;10.11;77.68;97194.97;5132923;27;20053;-53
2021/11/03 07:53:18;;;;;;;274.15;26.50;;;;;;;10.23;78.67;97196.75;5132868;27;20115;-53
2021/11/03 07:55:47;;;;;;;55.70;5.43;;;;;;;10.39;78.07;97185.53;5132894;27;20102;-54
2021/11/03 07:58:18;;;;;;;85.40;9.27;;;;;;;10.50;78.53;97186.50;5132703;27;20038;-53
2021/11/03 08:00:45;;;;;;;73.40;11.35;;;;;;;10.81;78.95;97182.56;5132779;27;20033;-53
2021/11/03 08:03:10;;;;;;;234.40;80.90;;;;;;;10.83;77.65;97187.56;5132741;27;20034;-53
2021/11/03 08:05:37;;;;;;;362.77;70.75;;;;;;;11.12;78.47;97189.03;5132787;28;20392;-53
2021/11/03 08:08:08;;;;;;;200.27;84.10;;;;;;;11.49;77.79;97182.44;5132473;28;20043;-52
2021/11/03 08:10:34;;;;;;;97.40;14.10;;;;;;;11.88;76.86;97187.66;5114226;28;20039;-53
2021/11/03 08:13:00;;;;;;;32.60;6.00;;;;;;;12.24;75.58;97191.50;5132703;28;20015;-52
2021/11/03 08:15:26;;;;;;;41.17;10.27;;;;;;;12.27;74.33;97198.09;5132677;28;20034;-52
2021/11/03 08:17:55;;;;;;;68.93;9.85;;;;;;;12.34;73.68;97203.97;5114150;28;20019;-53
2021/11/03 08:20:25;;;;;;;18.75;7.10;;;;;;;12.11;73.07;97203.22;5132559;28;20023;-52
2021/11/03 08:22:56;;;;;;;45.55;16.52;;;;;;;12.21;74.63;97209.59;5132898;28;20027;-53
2021/11/03 08:25:23;;;;;;;9.48;2.95;;;;;;;12.30;72.71;97200.25;5132647;28;20080;-52
2021/11/03 08:27:50;;;;;;;1225.35;811.08;;;;;;;12.11;72.88;97207.66;5132581;28;20462;-52
2021/11/03 08:30:16;;;;;;;396.05;322.92;;;;;;;12.05;73.04;97206.81;5113996;28;20054;-52
2021/11/03 08:33:08;;;;;;;558.90;443.63;;;;;;;12.31;73.09;97199.19;5132489;28;20119;-53
2021/11/03 08:35:36;;;;;;;76.07;62.40;;;;;;;12.39;71.49;97206.63;5122894;28;20039;-53
2021/11/03 08:38:04;;;;;;;1259.30;784.88;;;;;;;12.00;71.26;97217.28;5132455;28;20059;-52
2021/11/03 08:40:33;;;;;;;214.80;124.72;;;;;;;12.08;71.88;97216.84;5132384;28;20073;-53
2021/11/03 08:43:00;;;;;;;54.72;43.50;;;;;;;12.25;70.27;97224.66;5113944;28;20019;-52
2021/11/03 08:45:27;;;;;;;11.50;7.53;;;;;;;12.17;69.60;97231.16;5113593;28;20023;-53
2021/11/03 08:47:53;;;;;;;16.23;6.07;;;;;;;12.13;70.20;97232.69;5113859;28;20471;-52
2021/11/03 08:50:24;;;;;;;6.45;3.63;;;;;;;12.14;69.15;97226.38;5113931;28;20059;-52
2021/11/03 08:52:52;;;;;;;21.92;8.13;;;;;;;12.05;70.16;97222.56;5113880;28;20030;-53
2021/11/03 08:55:18;;;;;;;14.38;7.97;;;;;;;12.33;70.33;97218.16;5132269;28;20026;-53
2021/11/03 08:57:44;;;;;;;19.50;8.82;;;;;;;12.74;69.90;97226.44;5132277;28;20020;-52
2021/11/03 09:00:23;;;;;;;8.95;2.75;;;;;;;12.82;67.10;97233.88;5134213;27;20031;-52
2021/11/03 09:02:49;;;;;;;9.40;3.20;;;;;;;12.67;67.18;97233.75;5136152;27;20400;-52
2021/11/03 09:05:15;;;;;;;6.10;1.73;;;;;;;12.62;68.08;97234.50;5136022;27;20388;-52
2021/11/03 09:07:42;;;;;;;10.90;3.47;;;;;;;12.57;69.22;97231.81;5117367;27;20047;-53
2021/11/03 09:10:11;;;;;;;13.18;2.85;;;;;;;12.52;69.29;97240.47;5135994;27;20542;-52
2021/11/03 09:12:38;;;;;;;4.50;1.30;;;;;;;12.48;68.20;97236.72;5135989;27;20030;-52
2021/11/03 09:15:06;;;;;;;4.03;2.28;;;;;;;12.27;67.52;97240.97;5135891;27;20411;-52
2021/11/03 09:17:31;;;;;;;3.53;1.77;;;;;;;12.16;68.17;97226.94;5117391;27;20015;-52
2021/11/03 09:19:58;;;;;;;5.03;1.80;;;;;;;12.22;67.61;97225.16;5117278;27;20034;-52
2021/11/03 09:22:24;;;;;;;5.55;1.40;;;;;;;12.24;68.36;97227.53;5117249;27;20507;-52
2021/11/03 09:24:49;;;;;;;4.28;1.27;;;;;;;12.46;68.21;97225.66;5135740;27;20149;-52
2021/11/03 09:27:16;;;;;;;13.18;4.28;;;;;;;12.58;68.10;97223.66;5135679;27;20499;-52
2021/11/03 09:29:44;;;;;;;16.05;9.20;;;;;;;12.87;68.04;97222.59;5117339;27;20019;-52
2021/11/03 09:32:13;;;;;;;7.50;3.55;;;;;;;13.61;66.82;97226.31;5117091;27;20027;-51
2021/11/03 09:34:43;;;;;;;6.85;2.25;;;;;;;14.67;64.48;97232.19;5135469;27;20019;-52
2021/11/03 09:37:10;;;;;;;17.23;3.22;;;;;;;14.91;63.50;97233.28;5135407;27;20038;-52
2021/11/03 09:39:37;;;;;;;8.95;1.73;;;;;;;15.00;63.74;97235.41;5116818;27;20062;-52
2021/11/03 09:42:03;;;;;;;9.38;2.58;;;;;;;15.33;62.52;97239.34;5116804;27;20030;-52
2021/11/03 09:44:33;;;;;;;3.38;1.60;;;;;;;15.51;58.53;97243.28;5116861;27;20019;-52
2021/11/03 09:47:24;;;;;;;3.53;1.40;;;;;;;15.25;58.40;97245.97;5116780;27;20111;-52
2021/11/03 09:50:14;;;;;;;3.22;1.48;;;;;;;15.00;58.33;97251.25;5135269;27;20031;-52
2021/11/03 09:52:45;;;;;;;2.85;1.40;;;;;;;14.80;58.24;97242.25;5116710;27;20027;-51
2021/11/03 09:55:14;;;;;;;2.83;1.33;;;;;;;14.72;58.24;97248.06;5116731;27;20573;-52
2021/11/03 09:58:02;;;;;;;4.03;1.10;;;;;;;14.65;59.09;97236.94;5135052;27;20045;-51
2021/11/03 10:00:40;;;;;;;4.90;2.15;;;;;;;15.41;59.26;97243.28;5134940;27;20027;-51
2021/11/03 10:03:34;;;;;;;10.80;2.70;;;;;;;17.71;55.75;97233.22;5135225;27;20050;-52
2021/11/03 10:06:21;;;;;;;5.30;2.28;;;;;;;19.59;51.90;97235.31;5116426;27;20445;-51
2021/11/03 10:08:50;;;;;;;2.55;1.60;;;;;;;20.64;46.02;97226.56;5112898;28;20070;-51
2021/11/03 10:11:27;;;;;;;4.53;1.30;;;;;;;20.47;45.51;97230.63;5113073;28;20027;-51
2021/11/03 10:13:55;;;;;;;2.85;1.27;;;;;;;19.84;45.92;97226.88;5114223;28;20040;-51
2021/11/03 10:16:25;;;;;;;4.78;1.85;;;;;;;19.88;46.43;97233.19;5112637;28;20104;-50
2021/11/03 10:18:57;;;;;;;3.30;1.52;;;;;;;20.71;44.31;97222.38;5112529;28;20042;-51
2021/11/03 10:21:32;;;;;;;11.82;6.15;;;;;;;20.68;43.63;97219.53;5113974;28;20023;-51
2021/11/03 10:24:06;;;;;;;3.72;1.33;;;;;;;20.98;44.31;97214.56;5112740;28;20080;-50
2021/11/03 10:26:48;;;;;;;2.00;1.13;;;;;;;21.88;43.33;97217.06;5114026;28;20401;-51
2021/11/03 10:29:24;;;;;;;6.68;1.45;;;;;;;21.17;43.02;97220.50;5112532;28;20272;-50
2021/11/03 10:32:08;;;;;;;3.60;1.67;;;;;;;20.19;45.18;97229.91;5113737;28;20126;-50
2021/11/03 10:34:34;;;;;;;11.35;2.47;;;;;;;19.30;46.73;97239.03;5113848;28;20031;-50
2021/11/03 10:37:23;;;;;;;8.95;1.50;;;;;;;18.71;47.07;97233.25;5095341;28;20028;-52
2021/11/03 10:40:00;;;;;;;2.65;0.85;;;;;;;18.55;47.15;97230.03;5113613;28;20454;-50
2021/11/03 10:42:46;;;;;;;7.63;1.90;;;;;;;19.05;47.35;97241.00;5113618;28;20445;-51
2021/11/03 10:45:38;;;;;;;13.85;2.08;;;;;;;19.49;46.94;97230.97;5113481;28;20094;-50
2021/11/03 10:48:06;;;;;;;4.00;1.38;;;;;;;20.06;45.57;97244.81;5112881;28;20044;-50
2021/11/03 10:50:56;;;;;;;5.82;1.63;;;;;;;20.37;45.22;97233.50;5112400;28;20153;-51
2021/11/03 10:53:28;;;;;;;3.83;1.17;;;;;;;21.27;43.16;97230.91;5106508;28;20048;-51
2021/11/03 10:56:15;;;;;;;10.32;2.60;;;;;;;22.13;42.97;97226.22;5111799;28;20026;-50
2021/11/03 10:58:50;;;;;;;2.92;1.30;;;;;;;22.60;39.30;97225.69;5113231;28;20039;-50
2021/11/03 11:01:27;;;;;;;;;;;;;;;23.88;39.95;97221.47;5112278;28;20024;-51
2021/11/03 11:03:58;;;;;;;1.58;0.70;;;;;;;23.65;34.86;97215.56;5113356;28;20371;-51
2021/11/03 11:06:40;;;;;;;12.18;3.28;;;;;;;22.36;36.73;97216.22;5111774;28;20412;-50
2021/11/03 11:09:09;;;;;;;4.80;2.00;;;;;;;21.38;39.08;97226.09;5091485;28;20044;-51
2021/11/03 11:11:37;;;;;;;5.00;1.70;;;;;;;20.68;40.46;97238.97;5091418;28;20028;-51
2021/11/03 11:14:17;;;;;;;5.72;2.78;;;;;;;20.28;42.89;97238.78;5091367;28;20201;-51
2021/11/03 11:16:54;;;;;;;1.50;0.90;;;;;;;19.67;41.24;97230.09;5092621;28;20016;-51
2021/11/03 11:19:57;;;;;;;5.57;1.45;;;;;;;19.23;42.52;97230.63;5091386;28;20122;-50
2021/11/03 11:22:45;;;;;;;2.75;0.47;;;;;;;18.98;41.82;97223.88;5090934;28;20039;-51
2021/11/03 11:25:15;;;;;;;1.42;0.60;;;;;;;18.91;40.80;97217.06;5091148;28;20028;-51
2021/11/03 11:27:55;;;;;;;2.10;0.50;;;;;;;18.53;39.86;97219.72;5091113;28;20147;-50
2021/11/03 11:30:24;;;;;;;2.83;0.80;;;;;;;18.16;40.21;97215.97;5091105;28;20032;-50
2021/11/03 11:33:25;;;;;;;3.70;0.50;;;;;;;17.94;40.26;97210.41;5092363;28;20110;-51
2021/11/03 11:36:12;;;;;;;2.17;0.40;;;;;;;17.81;40.64;97211.06;5090421;28;20028;-52
2021/11/03 11:38:44;;;;;;;3.45;0.40;;;;;;;17.74;41.59;97206.88;5092297;28;20088;-51
2021/11/03 11:41:28;;;;;;;6.63;1.25;;;;;;;18.10;41.41;97213.66;5092147;28;20161;-51
2021/11/03 11:44:17;;;;;;;7.10;2.10;;;;;;;18.13;41.44;97205.91;5090942;28;20074;-51